createdAt,value
2017-12-10T00:00:30.713Z,998.39
2017-12-10T00:01:30.698Z,998.35
2017-12-10T00:02:30.685Z,998.36
2017-12-10T00:03:30.676Z,998.37
2017-12-10T00:04:30.663Z,998.28
2017-12-10T00:05:30.645Z,998.27
2017-12-10T00:06:30.632Z,998.32
2017-12-10T00:07:30.615Z,998.25
2017-12-10T00:08:30.603Z,998.21
2017-12-10T00:09:30.588Z,998.23
2017-12-10T00:10:30.576Z,998.23
2017-12-10T00:11:30.560Z,998.25
2017-12-10T00:12:30.552Z,998.24
2017-12-10T00:13:30.532Z,998.18
2017-12-10T00:14:30.517Z,998.14
2017-12-10T00:15:30.503Z,998.11
2017-12-10T00:16:30.490Z,998.08
2017-12-10T00:17:30.474Z,998.09
2017-12-10T00:18:30.463Z,998.05
2017-12-10T00:19:30.449Z,997.98
2017-12-10T00:20:30.433Z,997.98
2017-12-10T00:21:30.419Z,997.97
2017-12-10T00:22:30.404Z,997.92
2017-12-10T00:23:30.403Z,997.94
2017-12-10T00:24:30.377Z,997.92
2017-12-10T00:25:30.384Z,997.90
2017-12-10T00:26:30.358Z,997.89
2017-12-10T00:27:30.336Z,997.80
2017-12-10T00:28:30.322Z,997.71
2017-12-10T00:29:30.308Z,997.64
2017-12-10T00:30:30.295Z,997.64
2017-12-10T00:31:30.280Z,997.72
2017-12-10T00:32:30.267Z,997.60
2017-12-10T00:33:30.267Z,997.59
2017-12-10T00:34:30.236Z,997.61
2017-12-10T00:35:30.225Z,997.51
2017-12-10T00:36:30.209Z,997.47
2017-12-10T00:37:30.195Z,997.51
2017-12-10T00:38:30.181Z,997.46
2017-12-10T00:39:30.168Z,997.38
2017-12-10T00:40:30.155Z,997.40
2017-12-10T00:41:30.139Z,997.43
2017-12-10T00:42:30.125Z,997.34
2017-12-10T00:43:30.115Z,997.32
2017-12-10T00:44:30.096Z,997.36
2017-12-10T00:45:30.084Z,997.30
2017-12-10T00:46:30.069Z,997.18
2017-12-10T00:47:30.057Z,997.25
2017-12-10T00:48:30.055Z,997.20
2017-12-10T00:49:30.028Z,997.20
2017-12-10T00:50:30.014Z,997.19
2017-12-10T00:51:29.999Z,997.14
2017-12-10T00:52:29.985Z,997.09
2017-12-10T00:53:29.977Z,997.15
2017-12-10T00:54:29.957Z,997.10
2017-12-10T00:55:29.949Z,997.13
2017-12-10T00:56:29.972Z,997.01
2017-12-10T00:57:29.913Z,997.03
2017-12-10T00:58:29.904Z,997.04
2017-12-10T00:59:29.888Z,996.95
2017-12-10T01:00:29.880Z,997.02
2017-12-10T01:01:29.858Z,996.88
2017-12-10T01:02:29.846Z,996.92
2017-12-10T01:03:29.836Z,996.86
2017-12-10T01:04:29.816Z,996.96
2017-12-10T01:05:29.801Z,996.88
2017-12-10T01:06:29.788Z,996.87
2017-12-10T01:07:29.774Z,996.85
2017-12-10T01:08:29.764Z,996.88
2017-12-10T01:09:29.744Z,996.84
2017-12-10T01:10:29.733Z,996.84
2017-12-10T01:11:29.716Z,996.80
2017-12-10T01:12:29.703Z,996.76
2017-12-10T01:13:29.692Z,996.68
2017-12-10T01:14:29.675Z,996.74
2017-12-10T01:15:29.667Z,996.71
2017-12-10T01:16:29.644Z,996.68
2017-12-10T01:17:29.634Z,996.72
2017-12-10T01:18:29.677Z,996.73
2017-12-10T01:19:29.603Z,996.74
2017-12-10T01:20:29.596Z,996.69
2017-12-10T01:21:29.573Z,996.66
2017-12-10T01:22:29.616Z,996.64
2017-12-10T01:23:29.549Z,996.70
2017-12-10T01:24:29.531Z,996.68
2017-12-10T01:25:29.521Z,996.68
2017-12-10T01:26:29.507Z,996.72
2017-12-10T01:27:29.495Z,996.68
2017-12-10T01:28:29.481Z,996.63
2017-12-10T01:29:29.463Z,996.59
2017-12-10T01:30:29.452Z,996.57
2017-12-10T01:31:29.445Z,996.53
2017-12-10T01:32:29.419Z,996.56
2017-12-10T01:33:29.410Z,996.55
2017-12-10T01:34:29.390Z,996.55
2017-12-10T01:35:29.380Z,996.59
2017-12-10T01:36:29.363Z,996.59
2017-12-10T01:37:29.349Z,996.65
2017-12-10T01:38:29.339Z,996.56
2017-12-10T01:39:29.324Z,996.56
2017-12-10T01:40:29.317Z,996.40
2017-12-10T01:41:29.292Z,996.55
2017-12-10T01:42:29.281Z,996.54
2017-12-10T01:43:29.269Z,996.53
2017-12-10T01:44:29.250Z,996.33
2017-12-10T01:45:29.239Z,996.50
2017-12-10T01:46:29.224Z,996.43
2017-12-10T01:47:29.208Z,996.50
2017-12-10T01:48:29.195Z,996.41
2017-12-10T01:49:29.179Z,996.45
2017-12-10T01:50:29.196Z,996.36
2017-12-10T01:51:29.151Z,996.33
2017-12-10T01:52:29.138Z,996.35
2017-12-10T01:53:29.127Z,996.31
2017-12-10T01:54:29.108Z,996.28
2017-12-10T01:55:29.096Z,996.27
2017-12-10T01:56:29.080Z,996.21
2017-12-10T01:57:29.067Z,996.23
2017-12-10T01:58:29.057Z,996.20
2017-12-10T01:59:29.038Z,996.21
2017-12-10T02:00:29.023Z,996.21
2017-12-10T02:01:29.014Z,996.19
2017-12-10T02:02:29.002Z,996.21
2017-12-10T02:03:28.989Z,996.15
2017-12-10T02:04:28.966Z,996.09
2017-12-10T02:05:28.954Z,996.07
2017-12-10T02:06:28.940Z,995.98
2017-12-10T02:07:28.925Z,996.06
2017-12-10T02:08:28.921Z,996.00
2017-12-10T02:09:28.897Z,995.99
2017-12-10T02:10:28.883Z,995.94
2017-12-10T02:11:28.868Z,995.93
2017-12-10T02:12:28.853Z,995.93
2017-12-10T02:13:28.851Z,995.88
2017-12-10T02:14:49.844Z,995.87
2017-12-10T02:15:28.811Z,995.83
2017-12-10T02:16:28.800Z,995.79
2017-12-10T02:17:28.781Z,995.77
2017-12-10T02:18:28.773Z,995.75
2017-12-10T02:19:28.759Z,995.76
2017-12-10T02:20:28.740Z,995.75
2017-12-10T02:21:28.731Z,995.73
2017-12-10T02:22:28.712Z,995.70
2017-12-10T02:23:28.696Z,995.70
2017-12-10T02:24:28.683Z,995.70
2017-12-10T02:25:28.668Z,995.70
2017-12-10T02:26:28.663Z,995.77
2017-12-10T02:27:28.646Z,995.78
2017-12-10T02:28:28.631Z,995.70
2017-12-10T02:29:28.612Z,995.69
2017-12-10T02:30:28.598Z,995.66
2017-12-10T02:31:28.593Z,995.65
2017-12-10T02:32:28.570Z,995.61
2017-12-10T02:33:28.554Z,995.63
2017-12-10T02:34:28.543Z,995.61
2017-12-10T02:35:28.528Z,995.60
2017-12-10T02:36:28.513Z,995.61
2017-12-10T02:37:28.504Z,995.59
2017-12-10T02:38:28.492Z,995.55
2017-12-10T02:39:28.472Z,995.52
2017-12-10T02:40:28.455Z,995.49
2017-12-10T02:41:28.442Z,995.45
2017-12-10T02:42:28.428Z,995.37
2017-12-10T02:43:28.421Z,995.39
2017-12-10T02:44:28.401Z,995.30
2017-12-10T02:45:28.388Z,995.30
2017-12-10T02:46:28.381Z,995.26
2017-12-10T02:47:28.359Z,995.19
2017-12-10T02:48:28.390Z,995.16
2017-12-10T02:49:28.330Z,995.16
2017-12-10T02:50:28.326Z,995.15
2017-12-10T02:51:28.303Z,995.12
2017-12-10T02:52:28.289Z,995.11
2017-12-10T02:53:28.275Z,995.03
2017-12-10T02:54:28.262Z,995.04
2017-12-10T02:55:28.249Z,995.02
2017-12-10T02:56:28.233Z,994.96
2017-12-10T02:57:28.217Z,994.96
2017-12-10T02:58:28.209Z,994.95
2017-12-10T02:59:28.189Z,994.91
2017-12-10T03:00:28.177Z,994.86
2017-12-10T03:01:28.162Z,994.81
2017-12-10T03:02:28.156Z,994.77
2017-12-10T03:03:28.135Z,994.75
2017-12-10T03:04:28.120Z,994.75
2017-12-10T03:05:28.106Z,994.72
2017-12-10T03:06:28.091Z,994.75
2017-12-10T03:07:28.080Z,994.72
2017-12-10T03:08:28.064Z,994.67
2017-12-10T03:09:28.049Z,994.64
2017-12-10T03:10:28.042Z,994.65
2017-12-10T03:11:28.022Z,994.56
2017-12-10T03:12:28.006Z,994.57
2017-12-10T03:13:27.992Z,994.58
2017-12-10T03:14:27.981Z,994.58
2017-12-10T03:15:27.965Z,994.58
2017-12-10T03:16:27.950Z,994.55
2017-12-10T03:17:27.940Z,994.52
2017-12-10T03:18:27.932Z,994.52
2017-12-10T03:19:27.922Z,994.47
2017-12-10T03:20:27.895Z,994.39
2017-12-10T03:21:27.881Z,994.45
2017-12-10T03:22:27.867Z,994.38
2017-12-10T03:23:27.855Z,994.36
2017-12-10T03:24:27.842Z,994.38
2017-12-10T03:25:27.826Z,994.33
2017-12-10T03:26:27.811Z,994.36
2017-12-10T03:27:27.799Z,994.39
2017-12-10T03:28:27.788Z,994.31
2017-12-10T03:29:27.770Z,994.32
2017-12-10T03:30:27.755Z,994.24
2017-12-10T03:31:27.744Z,994.23
2017-12-10T03:32:27.727Z,994.16
2017-12-10T03:33:27.712Z,994.16
2017-12-10T03:34:27.699Z,994.13
2017-12-10T03:35:27.688Z,994.13
2017-12-10T03:36:27.671Z,994.02
2017-12-10T03:37:27.660Z,993.99
2017-12-10T03:38:27.648Z,994.01
2017-12-10T03:39:27.630Z,994.01
2017-12-10T03:40:27.617Z,994.00
2017-12-10T03:41:27.602Z,993.96
2017-12-10T03:42:27.619Z,993.92
2017-12-10T03:43:27.580Z,993.88
2017-12-10T03:44:27.558Z,993.82
2017-12-10T03:45:27.546Z,993.82
2017-12-10T03:46:27.534Z,993.88
2017-12-10T03:47:27.519Z,993.75
2017-12-10T03:48:27.519Z,993.76
2017-12-10T03:49:27.490Z,993.76
2017-12-10T03:50:27.474Z,993.75
2017-12-10T03:51:27.461Z,993.78
2017-12-10T03:52:27.447Z,993.70
2017-12-10T03:53:27.438Z,993.68
2017-12-10T03:54:27.418Z,993.66
2017-12-10T03:55:27.405Z,993.58
2017-12-10T03:56:27.393Z,993.59
2017-12-10T03:57:27.376Z,993.61
2017-12-10T03:58:27.364Z,993.58
2017-12-10T03:59:27.352Z,993.58
2017-12-10T04:00:27.338Z,993.51
2017-12-10T04:01:27.322Z,993.49
2017-12-10T04:02:27.309Z,993.48
2017-12-10T04:03:27.306Z,993.51
2017-12-10T04:04:27.277Z,993.53
2017-12-10T04:05:27.269Z,993.50
2017-12-10T04:06:27.252Z,993.46
2017-12-10T04:07:27.237Z,993.40
2017-12-10T04:08:27.223Z,993.40
2017-12-10T04:09:27.208Z,993.37
2017-12-10T04:10:27.198Z,993.36
2017-12-10T04:11:27.181Z,993.35
2017-12-10T04:12:27.169Z,993.41
2017-12-10T04:13:27.155Z,993.27
2017-12-10T04:14:27.144Z,993.29
2017-12-10T04:15:27.125Z,993.20
2017-12-10T04:16:27.111Z,993.21
2017-12-10T04:17:27.102Z,993.20
2017-12-10T04:18:27.084Z,993.15
2017-12-10T04:19:27.072Z,993.19
2017-12-10T04:20:27.057Z,993.17
2017-12-10T04:21:27.041Z,993.13
2017-12-10T04:22:27.028Z,993.11
2017-12-10T04:23:27.013Z,993.07
2017-12-10T04:24:27.000Z,993.06
2017-12-10T04:25:26.994Z,993.05
2017-12-10T04:26:26.972Z,993.05
2017-12-10T04:27:26.961Z,992.96
2017-12-10T04:28:26.948Z,993.00
2017-12-10T04:29:26.931Z,992.94
2017-12-10T04:30:26.916Z,992.96
2017-12-10T04:31:26.903Z,992.95
2017-12-10T04:32:26.889Z,992.93
2017-12-10T04:33:26.874Z,992.95
2017-12-10T04:34:26.862Z,992.85
2017-12-10T04:35:26.849Z,992.86
2017-12-10T04:36:26.831Z,992.82
2017-12-10T04:37:26.818Z,992.84
2017-12-10T04:38:26.811Z,992.85
2017-12-10T04:39:26.790Z,992.73
2017-12-10T04:40:26.778Z,992.75
2017-12-10T04:41:26.767Z,992.71
2017-12-10T04:42:26.751Z,992.64
2017-12-10T04:43:26.736Z,992.61
2017-12-10T04:44:26.721Z,992.63
2017-12-10T04:45:26.707Z,992.63
2017-12-10T04:46:26.692Z,992.58
2017-12-10T04:47:26.678Z,992.57
2017-12-10T04:48:26.665Z,992.54
2017-12-10T04:49:26.657Z,992.45
2017-12-10T04:50:26.639Z,992.45
2017-12-10T04:51:26.625Z,992.44
2017-12-10T04:52:26.609Z,992.44
2017-12-10T04:53:26.612Z,992.45
2017-12-10T04:54:26.617Z,992.43
2017-12-10T04:55:26.567Z,992.40
2017-12-10T04:56:26.555Z,992.37
2017-12-10T04:57:26.537Z,992.38
2017-12-10T04:58:26.525Z,992.29
2017-12-10T04:59:26.513Z,992.26
2017-12-10T05:00:26.498Z,992.28
2017-12-10T05:01:26.482Z,992.25
2017-12-10T05:02:26.476Z,992.24
2017-12-10T05:03:26.481Z,992.19
2017-12-10T05:04:26.439Z,992.10
2017-12-10T05:05:26.427Z,992.16
2017-12-10T05:06:26.413Z,992.11
2017-12-10T05:07:26.396Z,992.10
2017-12-10T05:08:26.388Z,992.11
2017-12-10T05:09:26.367Z,992.11
2017-12-10T05:10:26.353Z,992.06
2017-12-10T05:11:26.344Z,992.04
2017-12-10T05:12:26.324Z,992.03
2017-12-10T05:13:26.313Z,991.99
2017-12-10T05:14:26.296Z,991.96
2017-12-10T05:15:26.283Z,991.84
2017-12-10T05:16:26.276Z,991.82
2017-12-10T05:17:26.253Z,991.72
2017-12-10T05:18:26.244Z,991.75
2017-12-10T05:19:26.227Z,991.70
2017-12-10T05:20:26.212Z,991.66
2017-12-10T05:21:26.198Z,991.63
2017-12-10T05:22:26.186Z,991.54
2017-12-10T05:23:26.171Z,991.57
2017-12-10T05:24:26.155Z,991.53
2017-12-10T05:25:26.141Z,991.54
2017-12-10T05:26:26.130Z,991.54
2017-12-10T05:27:26.117Z,991.49
2017-12-10T05:28:26.103Z,991.41
2017-12-10T05:29:26.085Z,991.41
2017-12-10T05:30:26.069Z,991.37
2017-12-10T05:31:26.056Z,991.33
2017-12-10T05:32:26.041Z,991.22
2017-12-10T05:33:26.028Z,991.20
2017-12-10T05:34:26.013Z,991.14
2017-12-10T05:35:26.001Z,991.15
2017-12-10T05:36:25.983Z,991.16
2017-12-10T05:37:25.971Z,991.13
2017-12-10T05:38:25.957Z,991.09
2017-12-10T05:39:25.942Z,991.03
2017-12-10T05:40:25.929Z,990.98
2017-12-10T05:41:25.914Z,990.95
2017-12-10T05:42:25.901Z,990.95
2017-12-10T05:43:25.887Z,990.93
2017-12-10T05:44:25.870Z,990.87
2017-12-10T05:45:25.860Z,990.82
2017-12-10T05:46:25.842Z,990.82
2017-12-10T05:47:25.832Z,990.78
2017-12-10T05:48:25.813Z,990.71
2017-12-10T05:49:25.801Z,990.70
2017-12-10T05:50:25.791Z,990.66
2017-12-10T05:51:25.771Z,990.63
2017-12-10T05:52:25.758Z,990.59
2017-12-10T05:53:25.747Z,990.59
2017-12-10T05:54:25.729Z,990.52
2017-12-10T05:55:25.713Z,990.56
2017-12-10T05:56:25.700Z,990.50
2017-12-10T05:57:25.688Z,990.48
2017-12-10T05:58:25.671Z,990.46
2017-12-10T05:59:25.657Z,990.39
2017-12-10T06:00:25.652Z,990.35
2017-12-10T06:01:25.631Z,990.26
2017-12-10T06:02:25.616Z,990.29
2017-12-10T06:03:25.601Z,990.27
2017-12-10T06:04:25.586Z,990.15
2017-12-10T06:05:25.573Z,990.14
2017-12-10T06:06:25.559Z,990.08
2017-12-10T06:07:25.545Z,990.03
2017-12-10T06:08:25.533Z,990.02
2017-12-10T06:09:25.516Z,990.01
2017-12-10T06:10:25.500Z,990.02
2017-12-10T06:11:25.520Z,989.99
2017-12-10T06:12:25.474Z,990.01
2017-12-10T06:13:25.460Z,989.98
2017-12-10T06:14:25.446Z,989.99
2017-12-10T06:15:25.431Z,989.87
2017-12-10T06:16:25.416Z,989.82
2017-12-10T06:17:25.405Z,989.81
2017-12-10T06:18:25.388Z,989.77
2017-12-10T06:19:25.373Z,989.79
2017-12-10T06:20:25.360Z,989.72
2017-12-10T06:21:25.345Z,989.70
2017-12-10T06:22:25.332Z,989.66
2017-12-10T06:23:25.317Z,989.67
2017-12-10T06:24:25.306Z,989.61
2017-12-10T06:25:25.289Z,989.57
2017-12-10T06:26:25.276Z,989.56
2017-12-10T06:27:25.262Z,989.57
2017-12-10T06:28:25.245Z,989.51
2017-12-10T06:29:25.236Z,989.43
2017-12-10T06:30:25.221Z,989.47
2017-12-10T06:31:25.204Z,989.45
2017-12-10T06:32:25.194Z,989.38
2017-12-10T06:33:25.175Z,989.35
2017-12-10T06:34:25.161Z,989.32
2017-12-10T06:35:25.169Z,989.27
2017-12-10T06:36:25.137Z,989.23
2017-12-10T06:37:25.120Z,989.22
2017-12-10T06:38:25.106Z,989.24
2017-12-10T06:39:25.097Z,989.17
2017-12-10T06:40:25.076Z,989.14
2017-12-10T06:41:25.067Z,989.09
2017-12-10T06:42:25.047Z,989.07
2017-12-10T06:43:25.038Z,989.04
2017-12-10T06:44:25.040Z,989.04
2017-12-10T06:45:25.007Z,989.00
2017-12-10T06:46:24.994Z,988.96
2017-12-10T06:47:24.979Z,988.93
2017-12-10T06:48:24.964Z,988.94
2017-12-10T06:49:24.948Z,988.94
2017-12-10T06:50:24.935Z,988.88
2017-12-10T06:51:24.919Z,988.82
2017-12-10T06:52:24.906Z,988.79
2017-12-10T06:53:24.891Z,988.76
2017-12-10T06:54:24.881Z,988.67
2017-12-10T06:55:24.863Z,988.69
2017-12-10T06:56:24.856Z,988.76
2017-12-10T06:57:24.834Z,988.69
2017-12-10T06:58:24.821Z,988.67
2017-12-10T06:59:24.808Z,988.63
2017-12-10T07:00:24.793Z,988.56
2017-12-10T07:01:24.788Z,988.64
2017-12-10T07:02:24.769Z,988.57
2017-12-10T07:03:24.749Z,988.57
2017-12-10T07:04:24.733Z,988.58
2017-12-10T07:05:24.721Z,988.56
2017-12-10T07:06:24.707Z,988.52
2017-12-10T07:07:24.693Z,988.48
2017-12-10T07:08:24.679Z,988.48
2017-12-10T07:09:24.665Z,988.44
2017-12-10T07:10:24.651Z,988.45
2017-12-10T07:11:24.637Z,988.43
2017-12-10T07:12:24.622Z,988.36
2017-12-10T07:13:25.191Z,988.39
2017-12-10T07:14:24.594Z,988.38
2017-12-10T07:15:24.580Z,988.32
2017-12-10T07:16:24.563Z,988.30
2017-12-10T07:17:24.553Z,988.32
2017-12-10T07:18:24.540Z,988.20
2017-12-10T07:19:24.521Z,988.18
2017-12-10T07:20:24.507Z,988.20
2017-12-10T07:21:24.497Z,988.13
2017-12-10T07:22:24.486Z,988.13
2017-12-10T07:23:24.466Z,988.06
2017-12-10T07:24:24.452Z,988.01
2017-12-10T07:25:24.436Z,987.92
2017-12-10T07:26:25.187Z,987.95
2017-12-10T07:27:24.409Z,987.93
2017-12-10T07:28:24.396Z,987.93
2017-12-10T07:29:24.381Z,987.92
2017-12-10T07:30:24.366Z,987.87
2017-12-10T07:31:24.351Z,987.80
2017-12-10T07:32:24.342Z,987.78
2017-12-10T07:33:25.195Z,987.70
2017-12-10T07:34:24.312Z,987.67
2017-12-10T07:35:24.295Z,987.63
2017-12-10T07:36:24.291Z,987.63
2017-12-10T07:37:24.276Z,987.55
2017-12-10T07:38:26.181Z,987.49
2017-12-10T07:39:24.239Z,987.45
2017-12-10T07:40:24.231Z,987.44
2017-12-10T07:41:24.212Z,987.38
2017-12-10T07:42:25.192Z,987.32
2017-12-10T07:43:24.181Z,987.32
2017-12-10T07:44:24.165Z,987.32
2017-12-10T07:45:24.152Z,987.26
2017-12-10T07:46:24.137Z,987.22
2017-12-10T07:47:24.689Z,987.20
2017-12-10T07:48:24.112Z,987.15
2017-12-10T07:49:24.096Z,987.08
2017-12-10T07:50:24.082Z,987.09
2017-12-10T07:51:24.070Z,987.03
2017-12-10T07:52:24.053Z,987.01
2017-12-10T07:53:24.039Z,986.93
2017-12-10T07:54:24.024Z,986.94
2017-12-10T07:55:24.011Z,986.90
2017-12-10T07:56:23.996Z,986.87
2017-12-10T07:57:23.981Z,986.81
2017-12-10T07:58:23.988Z,986.79
2017-12-10T07:59:23.954Z,986.75
2017-12-10T08:00:23.938Z,986.64
2017-12-10T08:01:23.930Z,986.62
2017-12-10T08:02:23.930Z,986.59
2017-12-10T08:03:23.897Z,986.64
2017-12-10T08:04:23.884Z,986.64
2017-12-10T08:05:23.869Z,986.68
2017-12-10T08:06:23.857Z,986.63
2017-12-10T08:07:23.841Z,986.55
2017-12-10T08:08:23.827Z,986.50
2017-12-10T08:09:23.816Z,986.44
2017-12-10T08:10:23.796Z,986.40
2017-12-10T08:11:23.783Z,986.34
2017-12-10T08:12:23.768Z,986.30
2017-12-10T08:13:23.753Z,986.29
2017-12-10T08:14:23.744Z,986.28
2017-12-10T08:15:23.727Z,986.23
2017-12-10T08:16:23.711Z,986.21
2017-12-10T08:17:23.701Z,986.23
2017-12-10T08:18:23.682Z,986.31
2017-12-10T08:19:23.671Z,986.16
2017-12-10T08:20:23.653Z,986.18
2017-12-10T08:21:23.642Z,986.05
2017-12-10T08:22:23.627Z,986.09
2017-12-10T08:23:23.612Z,986.04
2017-12-10T08:24:23.598Z,986.03
2017-12-10T08:25:23.608Z,985.93
2017-12-10T08:26:23.570Z,985.93
2017-12-10T08:27:23.560Z,985.93
2017-12-10T08:28:23.539Z,985.88
2017-12-10T08:29:23.527Z,985.85
2017-12-10T08:30:23.514Z,985.82
2017-12-10T08:31:23.498Z,985.75
2017-12-10T08:32:23.488Z,985.76
2017-12-10T08:33:23.470Z,985.70
2017-12-10T08:34:23.456Z,985.68
2017-12-10T08:35:23.443Z,985.66
2017-12-10T08:36:23.430Z,985.59
2017-12-10T08:37:23.413Z,985.57
2017-12-10T08:38:23.401Z,985.56
2017-12-10T08:39:23.384Z,985.49
2017-12-10T08:40:23.369Z,985.50
2017-12-10T08:41:23.355Z,985.49
2017-12-10T08:42:23.347Z,985.47
2017-12-10T08:43:23.333Z,985.33
2017-12-10T08:44:23.313Z,985.26
2017-12-10T08:45:23.306Z,985.26
2017-12-10T08:46:23.286Z,985.25
2017-12-10T08:47:23.272Z,985.12
2017-12-10T08:48:23.255Z,985.07
2017-12-10T08:49:23.243Z,985.13
2017-12-10T08:50:23.230Z,985.04
2017-12-10T08:51:23.260Z,985.00
2017-12-10T08:52:23.199Z,984.97
2017-12-10T08:53:23.187Z,984.84
2017-12-10T08:54:23.176Z,984.84
2017-12-10T08:55:23.159Z,984.79
2017-12-10T08:56:23.203Z,984.72
2017-12-10T08:57:23.132Z,984.65
2017-12-10T08:58:23.116Z,984.60
2017-12-10T08:59:23.105Z,984.56
2017-12-10T09:00:23.089Z,984.52
2017-12-10T09:01:23.075Z,984.54
2017-12-10T09:02:23.060Z,984.54
2017-12-10T09:03:23.052Z,984.54
2017-12-10T09:04:23.031Z,984.55
2017-12-10T09:05:23.018Z,984.44
2017-12-10T09:06:23.085Z,984.30
2017-12-10T09:07:22.989Z,984.19
2017-12-10T09:08:22.984Z,984.09
2017-12-10T09:09:22.961Z,984.04
2017-12-10T09:10:22.947Z,984.09
2017-12-10T09:11:22.939Z,984.04
2017-12-10T09:12:22.983Z,984.02
2017-12-10T09:13:22.908Z,983.97
2017-12-10T09:14:22.892Z,983.91
2017-12-10T09:15:22.880Z,983.85
2017-12-10T09:16:22.863Z,983.72
2017-12-10T09:17:22.888Z,983.60
2017-12-10T09:18:22.835Z,983.53
2017-12-10T09:19:22.826Z,983.45
2017-12-10T09:20:22.811Z,983.46
2017-12-10T09:21:22.799Z,983.47
2017-12-10T09:22:22.786Z,983.44
2017-12-10T09:23:22.767Z,983.45
2017-12-10T09:24:22.751Z,983.35
2017-12-10T09:25:22.739Z,983.28
2017-12-10T09:26:22.728Z,983.16
2017-12-10T09:27:22.763Z,983.12
2017-12-10T09:28:22.700Z,983.12
2017-12-10T09:29:22.688Z,983.09
2017-12-10T09:30:22.689Z,983.05
2017-12-10T09:31:22.659Z,982.98
2017-12-10T09:32:22.650Z,982.97
2017-12-10T09:33:22.628Z,982.98
2017-12-10T09:34:22.618Z,982.96
2017-12-10T09:35:22.599Z,982.90
2017-12-10T09:36:22.614Z,982.82
2017-12-10T09:37:22.577Z,982.80
2017-12-10T09:38:22.563Z,982.71
2017-12-10T09:39:22.546Z,982.69
2017-12-10T09:40:22.532Z,982.65
2017-12-10T09:41:22.519Z,982.54
2017-12-10T09:42:22.503Z,982.55
2017-12-10T09:43:22.490Z,982.53
2017-12-10T09:44:22.483Z,982.46
2017-12-10T09:45:22.460Z,982.45
2017-12-10T09:46:22.448Z,982.40
2017-12-10T09:47:22.435Z,982.35
2017-12-10T09:48:22.448Z,982.26
2017-12-10T09:49:22.410Z,982.16
2017-12-10T09:50:22.394Z,982.17
2017-12-10T09:51:22.378Z,982.13
2017-12-10T09:52:22.368Z,982.04
2017-12-10T09:53:22.352Z,982.07
2017-12-10T09:54:22.341Z,982.00
2017-12-10T09:55:22.326Z,981.98
2017-12-10T09:56:22.312Z,981.92
2017-12-10T09:57:22.297Z,981.94
2017-12-10T09:58:22.284Z,981.87
2017-12-10T09:59:22.274Z,981.82
2017-12-10T10:00:22.256Z,981.77
2017-12-10T10:01:22.242Z,981.78
2017-12-10T10:02:22.232Z,981.71
2017-12-10T10:03:22.217Z,981.69
2017-12-10T10:04:22.202Z,981.57
2017-12-10T10:05:22.193Z,981.52
2017-12-10T10:06:22.175Z,981.40
2017-12-10T10:07:22.173Z,981.32
2017-12-10T10:08:22.148Z,981.25
2017-12-10T10:09:22.184Z,981.15
2017-12-10T10:10:22.120Z,981.09
2017-12-10T10:11:22.107Z,981.08
2017-12-10T10:12:22.092Z,981.03
2017-12-10T10:13:22.080Z,981.01
2017-12-10T10:14:22.064Z,980.97
2017-12-10T10:15:22.057Z,980.90
2017-12-10T10:16:22.047Z,980.92
2017-12-10T10:17:22.025Z,980.90
2017-12-10T10:18:22.019Z,980.93
2017-12-10T10:19:21.996Z,980.86
2017-12-10T10:20:22.024Z,980.81
2017-12-10T10:21:21.995Z,980.73
2017-12-10T10:22:21.967Z,980.70
2017-12-10T10:23:21.961Z,980.60
2017-12-10T10:24:21.935Z,980.58
2017-12-10T10:25:21.914Z,980.51
2017-12-10T10:26:21.900Z,980.44
2017-12-10T10:27:21.890Z,980.37
2017-12-10T10:28:21.873Z,980.32
2017-12-10T10:29:21.859Z,980.27
2017-12-10T10:30:21.870Z,980.22
2017-12-10T10:31:21.831Z,980.19
2017-12-10T10:32:21.817Z,980.15
2017-12-10T10:33:21.828Z,980.14
2017-12-10T10:34:21.805Z,980.02
2017-12-10T10:35:21.781Z,980.00
2017-12-10T10:36:21.764Z,979.88
2017-12-10T10:37:21.749Z,979.83
2017-12-10T10:38:21.736Z,979.81
2017-12-10T10:39:21.725Z,979.72
2017-12-10T10:40:21.718Z,979.72
2017-12-10T10:41:21.692Z,979.70
2017-12-10T10:42:21.679Z,979.68
2017-12-10T10:43:21.666Z,979.59
2017-12-10T10:44:21.653Z,979.51
2017-12-10T10:45:21.639Z,979.47
2017-12-10T10:46:21.624Z,979.44
2017-12-10T10:47:21.614Z,979.44
2017-12-10T10:48:21.602Z,979.33
2017-12-10T10:49:21.583Z,979.29
2017-12-10T10:50:21.570Z,979.18
2017-12-10T10:51:21.556Z,979.08
2017-12-10T10:52:21.545Z,978.95
2017-12-10T10:53:21.529Z,978.92
2017-12-10T10:54:21.521Z,978.91
2017-12-10T10:55:21.502Z,978.88
2017-12-10T10:56:21.486Z,978.82
2017-12-10T10:57:21.473Z,978.76
2017-12-10T10:58:21.465Z,978.82
2017-12-10T10:59:21.445Z,978.65
2017-12-10T11:00:21.432Z,978.64
2017-12-10T11:01:21.418Z,978.54
2017-12-10T11:02:21.407Z,978.44
2017-12-10T11:03:21.390Z,978.45
2017-12-10T11:04:21.376Z,978.35
2017-12-10T11:05:21.364Z,978.33
2017-12-10T11:06:21.367Z,978.28
2017-12-10T11:07:21.381Z,978.23
2017-12-10T11:08:21.322Z,978.19
2017-12-10T11:09:21.309Z,978.12
2017-12-10T11:10:21.296Z,978.10
2017-12-10T11:11:21.283Z,977.99
2017-12-10T11:12:21.266Z,977.98
2017-12-10T11:13:21.256Z,978.00
2017-12-10T11:14:21.240Z,977.81
2017-12-10T11:15:21.226Z,977.70
2017-12-10T11:16:21.212Z,977.61
2017-12-10T11:17:21.197Z,977.54
2017-12-10T11:18:21.184Z,977.39
2017-12-10T11:19:21.170Z,977.35
2017-12-10T11:20:21.155Z,977.29
2017-12-10T11:21:21.141Z,977.37
2017-12-10T11:22:21.130Z,977.34
2017-12-10T11:23:21.115Z,977.34
2017-12-10T11:24:21.109Z,977.24
2017-12-10T11:25:21.087Z,977.25
2017-12-10T11:26:21.072Z,977.13
2017-12-10T11:27:21.060Z,977.03
2017-12-10T11:28:21.046Z,976.98
2017-12-10T11:29:21.037Z,976.93
2017-12-10T11:30:21.024Z,976.89
2017-12-10T11:31:21.011Z,976.87
2017-12-10T11:32:20.992Z,976.77
2017-12-10T11:33:20.977Z,976.81
2017-12-10T11:34:20.966Z,976.77
2017-12-10T11:35:20.951Z,976.85
2017-12-10T11:36:20.936Z,976.78
2017-12-10T11:37:20.922Z,976.76
2017-12-10T11:38:20.907Z,976.73
2017-12-10T11:39:20.897Z,976.71
2017-12-10T11:40:20.880Z,976.74
2017-12-10T11:41:20.874Z,976.71
2017-12-10T11:42:20.851Z,976.64
2017-12-10T11:43:20.837Z,976.65
2017-12-10T11:44:20.824Z,976.61
2017-12-10T11:45:20.819Z,976.71
2017-12-10T11:46:20.800Z,976.58
2017-12-10T11:47:20.783Z,976.59
2017-12-10T11:48:20.768Z,976.59
2017-12-10T11:49:20.759Z,976.53
2017-12-10T11:50:20.746Z,976.59
2017-12-10T11:51:20.726Z,976.61
2017-12-10T11:52:20.716Z,976.48
2017-12-10T11:53:20.703Z,976.51
2017-12-10T11:54:20.754Z,976.50
2017-12-10T11:55:20.698Z,976.24
2017-12-10T11:56:20.659Z,976.20
2017-12-10T11:57:20.643Z,976.11
2017-12-10T11:58:20.629Z,976.06
2017-12-10T11:59:20.617Z,976.01
2017-12-10T12:00:20.601Z,975.96
2017-12-10T12:01:20.589Z,975.91
2017-12-10T12:02:20.603Z,975.86
2017-12-10T12:03:20.621Z,975.82
2017-12-10T12:04:20.547Z,975.76
2017-12-10T12:05:20.533Z,975.70
2017-12-10T12:06:20.523Z,975.59
2017-12-10T12:07:20.505Z,975.59
2017-12-10T12:08:20.490Z,975.47
2017-12-10T12:09:20.477Z,975.39
2017-12-10T12:10:20.465Z,975.38
2017-12-10T12:11:20.450Z,975.31
2017-12-10T12:12:20.435Z,975.23
2017-12-10T12:13:20.421Z,975.16
2017-12-10T12:14:20.408Z,975.08
2017-12-10T12:15:20.392Z,974.98
2017-12-10T12:16:20.380Z,975.03
2017-12-10T12:17:20.364Z,975.00
2017-12-10T12:18:20.351Z,974.99
2017-12-10T12:19:20.336Z,974.96
2017-12-10T12:20:20.324Z,974.94
2017-12-10T12:21:20.309Z,974.90
2017-12-10T12:22:20.297Z,974.87
2017-12-10T12:23:20.290Z,974.90
2017-12-10T12:24:20.267Z,974.88
2017-12-10T12:25:20.252Z,974.89
2017-12-10T12:26:20.249Z,974.87
2017-12-10T12:27:20.226Z,974.84
2017-12-10T12:28:20.209Z,974.84